Grand Falls, Minnesota
Current Conditions -  °F | °C
As of 9:53 AM on Thursday 30 Oct 2014 (Local Time) from KVWU Reporting Station
Overcast Overcast  
Wind Chill: 30°   Ceiling: 2400
Heat Index: 36°   Visibility: 10mi
Dew Point: 34°   Wind: 7mph
Humidity: 93%   Direction: 320°NW
Pressure: 30.14"   Gusts: 16mph
Location:  48.1809°N, 93.8949°W
Report Text: KVWU 301453Z AUTO 32006G14KT 10SM BKN024 OVC030 02/01 A3014 RMK AO2
Loading
Personal Weather Stations






























Interactive Weather Map
Tropical Storm Tracking
New forecast layout! Learn more

10-Day Weather Forecast

Advertisements
Track Severe Weather on mobile